Terminal Aerodrome Forecast
Issued by NWS Cleveland, OH

Home | Current Version | Previous Version | Graphics & Text | Print | Product List | Glossary On
Versions: 1 2 3 4 5 6 7 8 9 10 11 12 13 14 15 16
660
FTUS41 KCLE 210523
TAFMFD
TAF
KMFD 210523Z 2106/2206 18002KT P6SM FEW250
      TEMPO 2106/2108 5SM BR
     FM210800 00000KT 5SM BR SCT250
      TEMPO 2109/2113 1SM BR SCT006
     FM211500 16003KT P6SM SCT250
     FM211800 15004KT P6SM SCT045
     FM220000 10003KT P6SM FEW250=

USA.gov is the U.S. government's official web portal to all federal, state and local government web resources and services.